Time;durP1;ratioP1;P1;durP2;ratioP2;P2;SDS_P1;SDS_P2;PMS_P1;PMS_P2;Temp;Humidity;BMP_temperature;BMP_pressure;BME280_temperature;BME280_humidity;BME280_pressure;Samples;Min_cycle;Max_cycle;Signal;HPM_P1;HPM_P2
2021/05/18 00:00:24;;;;;;;4.43;1.45;;;;;;;19.34;49.20;100916.66;5053603;28;20159;-65
2021/05/18 00:02:51;;;;;;;5.55;1.60;;;;;;;19.35;49.13;100914.84;5054216;28;20037;-64
2021/05/18 00:05:18;;;;;;;3.95;1.33;;;;;;;19.34;49.01;100916.66;5054354;28;20375;-64
2021/05/18 00:07:55;;;;;;;4.85;1.40;;;;;;;19.34;49.02;100915.81;5053782;28;20025;-64
2021/05/18 00:13:05;;;;;;;3.90;1.33;;;;;;;19.32;49.12;100917.75;5054195;28;20132;-64
2021/05/18 00:15:31;;;;;;;4.40;1.42;;;;;;;19.26;49.34;100902.41;5053862;28;20048;-65
2021/05/18 00:17:56;;;;;;;5.63;2.20;;;;;;;19.29;49.14;100913.56;5054350;28;20039;-65
2021/05/18 00:20:22;;;;;;;4.25;1.38;;;;;;;19.29;49.02;100918.00;5053982;28;20055;-64
2021/05/18 00:22:48;;;;;;;2.70;1.13;;;;;;;19.28;48.96;100909.25;5053433;28;20021;-63
2021/05/18 00:25:15;;;;;;;4.93;1.40;;;;;;;19.27;48.81;100904.94;5053803;28;20017;-64
2021/05/18 00:27:41;;;;;;;4.15;1.48;;;;;;;19.24;48.92;100904.34;5053900;28;20544;-64
2021/05/18 00:30:08;;;;;;;3.42;1.33;;;;;;;19.26;49.16;100905.88;5052842;28;20024;-65
2021/05/18 00:32:33;;;;;;;4.07;1.30;;;;;;;19.24;48.83;100913.09;5053671;28;20029;-65
2021/05/18 00:34:59;;;;;;;3.75;1.35;;;;;;;19.25;49.32;100916.59;5053124;28;20028;-64
2021/05/18 00:37:26;;;;;;;5.82;1.50;;;;;;;19.24;48.98;100920.22;5053361;28;20060;-65
2021/05/18 00:39:52;;;;;;;4.22;1.60;;;;;;;19.24;48.77;100914.94;5053833;28;20472;-64
2021/05/18 00:42:21;;;;;;;4.25;1.70;;;;;;;19.23;48.98;100915.88;5052745;28;20059;-65
2021/05/18 00:44:48;;;;;;;3.92;1.67;;;;;;;19.23;48.96;100923.81;5053913;28;20029;-66
2021/05/18 00:47:13;;;;;;;5.72;1.80;;;;;;;19.20;48.86;100920.47;5053517;28;20047;-64
2021/05/18 00:49:39;;;;;;;4.75;1.60;;;;;;;19.17;48.80;100917.25;5052980;28;20384;-63
2021/05/18 00:52:06;;;;;;;4.47;1.80;;;;;;;19.20;49.14;100923.13;5053343;28;20059;-65
2021/05/18 00:55:17;;;;;;;3.33;1.30;;;;;;;19.18;48.81;100918.91;5053462;28;20513;-65
2021/05/18 01:00:10;;;;;;;3.75;1.40;;;;;;;19.15;49.05;100924.44;5053370;28;20051;-65
2021/05/18 01:02:35;;;;;;;3.40;1.40;;;;;;;19.16;49.05;100921.69;5053218;28;20045;-65
2021/05/18 01:05:09;;;;;;;4.35;1.73;;;;;;;19.15;49.04;100919.16;5052927;28;20123;-64
2021/05/18 01:07:35;;;;;;;;;;;;;;;19.15;48.98;100925.31;5053692;28;20040;-64
2021/05/18 01:10:01;;;;;;;5.50;1.67;;;;;;;19.15;49.27;100925.31;5053370;28;19912;-64
2021/05/18 01:12:26;;;;;;;4.80;1.60;;;;;;;19.13;49.22;100923.75;5052498;28;20258;-65
2021/05/18 01:14:51;;;;;;;5.55;1.70;;;;;;;19.13;49.17;100921.94;5053204;28;20048;-66
2021/05/18 01:17:17;;;;;;;3.17;1.60;;;;;;;19.13;49.17;100921.94;5051878;28;20028;-64
2021/05/18 01:19:42;;;;;;;3.88;1.63;;;;;;;19.12;49.34;100924.72;5052973;28;20055;-65
2021/05/18 01:22:07;;;;;;;3.53;1.60;;;;;;;19.12;49.17;100928.22;5052664;28;20437;-65
2021/05/18 01:24:34;;;;;;;4.30;1.60;;;;;;;19.10;49.22;100918.72;5052617;28;20043;-67
2021/05/18 01:26:59;;;;;;;3.97;1.70;;;;;;;19.12;49.12;100927.34;5052992;28;20032;-64
2021/05/18 01:29:25;;;;;;;4.78;1.80;;;;;;;19.10;49.37;100926.66;5052711;28;20071;-64
2021/05/18 01:31:50;;;;;;;3.72;1.50;;;;;;;19.10;49.12;100929.28;5052058;28;20444;-65
2021/05/18 01:34:17;;;;;;;2.95;1.45;;;;;;;19.09;49.23;100928.47;5067791;28;20514;-65
2021/05/18 01:36:43;;;;;;;5.30;1.70;;;;;;;19.09;49.41;100928.47;5052476;28;20024;-64
2021/05/18 01:44:31;;;;;;;4.97;1.73;;;;;;;19.05;49.28;100927.03;5052672;28;20110;-64
2021/05/18 01:46:56;;;;;;;3.90;1.70;;;;;;;19.06;49.48;100927.88;5051612;28;20436;-64
2021/05/18 01:49:22;;;;;;;4.13;1.75;;;;;;;19.07;49.03;100934.84;5052145;28;20021;-65
2021/05/18 01:51:50;;;;;;;4.75;2.08;;;;;;;19.06;49.03;100941.94;5052548;28;20021;-65
2021/05/18 01:54:23;;;;;;;4.05;1.70;;;;;;;19.03;49.21;100932.44;5051387;28;20045;-65
2021/05/18 01:56:53;;;;;;;3.22;1.60;;;;;;;19.05;49.14;100929.69;5052566;28;20115;-65
2021/05/18 01:59:23;;;;;;;3.65;1.50;;;;;;;19.05;49.40;100936.78;5051915;28;20510;-65
2021/05/18 02:01:51;;;;;;;3.60;1.60;;;;;;;19.04;49.33;100938.56;5051887;28;20492;-65
2021/05/18 02:04:35;;;;;;;3.22;1.42;;;;;;;19.04;49.34;100941.19;5052122;28;20113;-65
2021/05/18 02:07:04;;;;;;;4.05;1.77;;;;;;;19.04;49.10;100943.84;5051581;28;20479;-64
2021/05/18 02:09:29;;;;;;;3.80;1.73;;;;;;;19.01;49.54;100941.47;5052187;28;20103;-64
2021/05/18 02:11:55;;;;;;;2.80;1.50;;;;;;;19.01;49.38;100944.94;5052137;28;20040;-66
2021/05/18 02:14:27;;;;;;;3.40;1.40;;;;;;;19.02;49.50;100943.13;5051511;28;20359;-65
2021/05/18 02:16:58;;;;;;;3.70;1.70;;;;;;;19.01;49.30;100944.94;5052218;28;20076;-64
2021/05/18 02:19:42;;;;;;;5.00;1.60;;;;;;;18.99;49.31;100946.03;5052037;28;20021;-64
2021/05/18 02:25:00;;;;;;;2.53;1.40;;;;;;;18.97;49.44;100943.50;5052352;28;19913;-64
2021/05/18 02:27:25;;;;;;;3.22;1.60;;;;;;;18.98;49.24;100945.22;5051799;28;20025;-64
2021/05/18 02:29:51;;;;;;;3.45;1.63;;;;;;;18.97;49.38;100945.34;5051315;28;20021;-65
2021/05/18 02:32:16;;;;;;;3.97;1.63;;;;;;;18.94;49.62;100942.94;5051865;28;20115;-65
2021/05/18 02:34:41;;;;;;;3.45;1.58;;;;;;;18.95;49.45;100953.38;5051250;28;20100;-64
2021/05/18 02:37:06;;;;;;;4.18;1.70;;;;;;;18.95;49.58;100950.75;5051811;28;20074;-64
2021/05/18 02:39:35;;;;;;;3.63;1.40;;;;;;;18.95;49.62;100949.91;5051989;28;20036;-64
2021/05/18 02:42:00;;;;;;;3.35;1.60;;;;;;;18.95;49.71;100952.56;5051091;28;20021;-65
2021/05/18 02:44:36;;;;;;;4.82;1.70;;;;;;;18.95;49.41;100952.56;5051497;28;20017;-65
2021/05/18 02:49:45;;;;;;;3.97;1.92;;;;;;;18.94;49.45;100953.50;5051468;28;20071;-65
2021/05/18 02:52:10;;;;;;;3.28;1.55;;;;;;;18.93;49.33;100952.69;5051496;28;20389;-65
2021/05/18 02:54:36;;;;;;;3.13;1.75;;;;;;;18.92;49.24;100953.63;5052258;28;20036;-65
2021/05/18 02:57:05;;;;;;;3.03;1.70;;;;;;;18.93;49.63;100957.09;5054765;28;20099;-65
2021/05/18 02:59:30;;;;;;;3.20;1.58;;;;;;;18.91;49.37;100959.03;5056210;28;20550;-65
2021/05/18 03:01:58;;;;;;;3.35;1.55;;;;;;;18.91;49.37;100961.69;5057106;28;20069;-66
2021/05/18 03:04:25;;;;;;;4.68;1.80;;;;;;;18.91;49.51;100959.03;5058227;28;20040;-65
2021/05/18 03:06:50;;;;;;;2.80;1.60;;;;;;;18.90;49.23;100955.56;5059902;28;20100;-64
2021/05/18 03:09:17;;;;;;;3.13;1.77;;;;;;;18.89;49.51;100964.44;5060820;28;20067;-65
2021/05/18 03:11:44;;;;;;;3.45;1.70;;;;;;;18.90;49.54;100960.00;5059788;28;20112;-64
2021/05/18 03:14:11;;;;;;;4.00;1.60;;;;;;;18.89;49.63;100964.44;5056292;28;20147;-64
2021/05/18 03:16:38;;;;;;;3.60;1.65;;;;;;;18.90;49.78;100967.91;5055625;28;20053;-65
2021/05/18 03:19:04;;;;;;;3.58;1.90;;;;;;;18.87;49.32;100958.47;5054431;28;20025;-65
2021/05/18 03:21:31;;;;;;;3.47;1.48;;;;;;;18.89;49.69;100967.09;5055413;28;20456;-64
2021/05/18 03:23:56;;;;;;;4.10;1.70;;;;;;;18.87;49.66;100966.38;5054566;28;20032;-64
2021/05/18 03:26:22;;;;;;;2.63;1.45;;;;;;;18.89;49.55;100963.63;5054964;28;20029;-64
2021/05/18 03:28:57;;;;;;;3.08;1.58;;;;;;;18.88;49.72;100965.41;5055287;28;20025;-64
2021/05/18 03:37:55;;;;;;;3.55;1.90;;;;;;;18.85;49.65;100963.88;5045828;28;20029;-65
2021/05/18 03:39:58;;;;;;;3.95;1.80;;;;;;;18.85;49.58;100968.31;5043513;28;20099;-65
2021/05/18 03:42:31;;;;;;;4.05;2.03;;;;;;;18.82;49.68;100966.72;5054829;28;20025;-66
2021/05/18 03:45:09;;;;;;;3.60;1.90;;;;;;;18.81;49.71;100972.97;5054310;28;20035;-65
2021/05/18 03:58:42;;;;;;;3.70;2.00;;;;;;;18.81;49.32;100975.59;5054549;28;20071;-65
2021/05/18 04:17:24;;;;;;;4.97;2.45;;;;;;;18.78;49.84;100990.88;5052904;28;20110;-64
2021/05/18 04:20:08;;;;;;;5.47;2.47;;;;;;;18.77;49.44;100994.47;5053196;28;20025;-64
2021/05/18 04:38:45;;;;;;;4.22;2.22;;;;;;;18.73;49.74;101004.44;5052377;28;20388;-65
2021/05/18 04:52:08;;;;;;;5.35;2.28;;;;;;;18.73;49.58;101028.19;5052854;28;20032;-65
2021/05/18 05:00:05;;;;;;;4.85;2.55;;;;;;;18.72;49.61;101023.88;5052265;28;20108;-64
2021/05/18 05:14:08;;;;;;;5.47;2.72;;;;;;;18.71;49.87;101029.28;5052732;28;20120;-65
2021/05/18 05:15:52;;;;;;;5.65;2.60;;;;;;;18.71;49.70;101024.00;5053271;28;20330;-64
2021/05/18 05:18:17;;;;;;;5.35;2.60;;;;;;;18.71;49.91;101034.56;5051203;28;20112;-65
2021/05/18 05:20:42;;;;;;;4.40;2.50;;;;;;;18.72;49.81;101036.25;5053167;28;20021;-64
2021/05/18 05:23:08;;;;;;;5.35;2.40;;;;;;;18.71;49.76;101035.41;5052660;28;20481;-65
2021/05/18 05:25:33;;;;;;;4.82;2.50;;;;;;;18.70;49.90;101036.38;5052151;28;20025;-66
2021/05/18 05:27:58;;;;;;;4.30;2.00;;;;;;;18.76;49.81;101037.69;5053116;28;20082;-65
2021/05/18 05:30:23;;;;;;;4.05;2.10;;;;;;;18.80;49.57;101036.47;5052017;28;20021;-64
2021/05/18 05:32:49;;;;;;;4.60;2.00;;;;;;;18.85;49.88;101036.97;5053128;28;20384;-64
2021/05/18 05:35:15;;;;;;;4.28;2.10;;;;;;;18.89;49.80;101037.56;5053017;28;20490;-65
2021/05/18 05:37:41;;;;;;;6.43;2.65;;;;;;;18.93;49.83;101037.19;5052009;28;20021;-65
2021/05/18 05:40:07;;;;;;;5.10;2.45;;;;;;;18.96;49.63;101036.94;5052622;28;20460;-65
2021/05/18 05:42:32;;;;;;;5.18;2.22;;;;;;;18.92;49.50;101026.75;5053060;28;20025;-65
2021/05/18 05:44:58;;;;;;;4.63;1.90;;;;;;;19.06;49.47;101039.66;5052362;28;20017;-66
2021/05/18 05:47:23;;;;;;;4.90;1.90;;;;;;;19.11;49.17;101041.94;5052208;28;20024;-64
2021/05/18 05:49:48;;;;;;;4.72;2.00;;;;;;;19.16;49.26;101042.38;5052550;28;20025;-63
2021/05/18 05:52:22;;;;;;;4.38;1.95;;;;;;;19.18;49.10;101046.59;5052184;28;20021;-65
2021/05/18 05:54:49;;;;;;;5.30;2.30;;;;;;;19.23;49.15;101042.69;5052729;28;20087;-64
2021/05/18 05:57:14;;;;;;;4.38;2.00;;;;;;;19.25;48.96;101046.06;5052763;28;20037;-64
2021/05/18 05:59:40;;;;;;;4.65;1.90;;;;;;;19.26;49.31;101050.38;5051725;28;20349;-64
2021/05/18 06:02:05;;;;;;;4.55;1.83;;;;;;;19.27;49.29;101052.06;5052056;28;20106;-65
2021/05/18 06:04:31;;;;;;;4.13;2.05;;;;;;;19.30;49.13;101057.94;5052726;28;20043;-65
2021/05/18 06:06:57;;;;;;;4.68;1.80;;;;;;;19.36;48.92;101061.88;5052620;28;20475;-64
2021/05/18 06:09:23;;;;;;;5.72;2.08;;;;;;;19.38;49.06;101060.75;5052183;28;20488;-65
2021/05/18 06:12:11;;;;;;;4.85;2.30;;;;;;;19.42;48.80;101069.28;5052586;28;20049;-65
2021/05/18 06:14:59;;;;;;;5.03;2.22;;;;;;;19.43;48.85;101068.31;5051693;28;20017;-65
2021/05/18 06:37:01;;;;;;;4.80;2.20;;;;;;;19.61;48.89;101084.44;5053329;28;20040;-65
2021/05/18 06:47:35;;;;;;;4.10;2.10;;;;;;;19.65;48.44;101088.50;5052924;28;20055;-63
2021/05/18 06:52:35;;;;;;;4.05;1.95;;;;;;;19.69;48.62;101099.66;5052338;28;20037;-63
2021/05/18 06:55:01;;;;;;;5.53;2.13;;;;;;;19.72;48.50;101102.03;5051272;28;20025;-64
2021/05/18 06:57:29;;;;;;;5.68;2.17;;;;;;;19.73;48.97;101101.09;5051910;28;20115;-65
2021/05/18 07:00:08;;;;;;;3.13;1.85;;;;;;;19.75;49.10;101101.78;5052070;28;20049;-65
2021/05/18 07:02:33;;;;;;;5.47;2.20;;;;;;;19.74;49.13;101102.75;5050971;28;20076;-65
2021/05/18 07:04:59;;;;;;;5.13;1.80;;;;;;;19.74;49.15;101113.31;5051819;28;20469;-65
2021/05/18 07:07:28;;;;;;;3.75;2.08;;;;;;;19.74;49.12;101122.13;5051334;28;20048;-64
2021/05/18 07:09:53;;;;;;;6.00;2.45;;;;;;;19.74;49.49;101121.25;5050915;28;20041;-64
2021/05/18 07:12:19;;;;;;;4.78;2.17;;;;;;;19.73;49.37;101130.19;5051369;28;20079;-64
2021/05/18 07:14:45;;;;;;;4.60;2.20;;;;;;;19.75;49.26;101136.16;5051796;28;20029;-65
2021/05/18 07:17:10;;;;;;;6.53;1.98;;;;;;;19.73;49.33;101131.00;5050698;28;20032;-66
2021/05/18 07:19:35;;;;;;;4.15;2.20;;;;;;;19.73;49.31;101138.09;5051582;28;20025;-64
2021/05/18 07:22:01;;;;;;;4.78;1.98;;;;;;;19.73;49.58;101138.09;5051540;28;20031;-64
2021/05/18 07:24:30;;;;;;;5.05;2.13;;;;;;;19.73;49.57;101141.59;5050558;28;20017;-65
2021/05/18 07:26:55;;;;;;;4.80;2.22;;;;;;;19.72;49.51;101152.28;5051682;28;20031;-64
2021/05/18 07:29:21;;;;;;;4.45;1.92;;;;;;;19.67;49.90;101135.97;5051374;28;20508;-64
2021/05/18 07:31:46;;;;;;;4.68;1.70;;;;;;;19.68;49.85;101148.25;5051063;28;20025;-65
2021/05/18 07:34:12;;;;;;;3.60;1.80;;;;;;;19.64;50.08;101152.91;5051620;28;20021;-63
2021/05/18 07:36:37;;;;;;;4.72;1.83;;;;;;;19.65;50.00;101159.06;5053028;28;20028;-63
2021/05/18 07:39:03;;;;;;;3.85;1.80;;;;;;;19.64;50.29;101155.56;5050864;28;20032;-64
2021/05/18 07:41:31;;;;;;;4.40;2.00;;;;;;;19.64;50.38;101165.31;5053684;28;20029;-64
2021/05/18 07:43:58;;;;;;;4.35;2.08;;;;;;;19.65;50.08;101161.72;5055634;28;20409;-66
2021/05/18 07:46:23;;;;;;;4.03;1.92;;;;;;;19.65;50.36;101165.19;5054504;28;20025;-65
2021/05/18 07:59:41;;;;;;;;;;;;;;;19.60;50.57;101166.50;5054793;28;20120;-66
2021/05/18 08:07:19;;;;;;;;;;;;;;;19.60;50.45;101163.88;5054663;28;20082;-63
2021/05/18 08:09:48;;;;;;;3.45;1.42;;;;;;;19.60;50.32;101167.38;5056027;28;20360;-65
2021/05/18 08:12:14;;;;;;;4.00;1.60;;;;;;;19.62;50.25;101167.25;5054145;28;20059;-65
2021/05/18 08:14:44;;;;;;;3.88;1.70;;;;;;;19.57;50.51;101157.06;5054689;28;20057;-66
2021/05/18 08:17:20;;;;;;;4.40;1.58;;;;;;;19.56;50.16;101164.13;5053867;28;20055;-68
2021/05/18 08:20:20;;;;;;;3.78;1.50;;;;;;;19.53;50.18;101164.38;5053318;28;20037;-65
2021/05/18 08:48:06;;;;;;;3.40;1.70;;;;;;;19.49;49.63;101154.22;5053039;28;20056;-64
2021/05/18 09:47:55;;;;;;;3.60;1.77;;;;;;;19.47;49.65;101154.34;5051978;28;20032;-65
2021/05/18 10:36:14;;;;;;;3.55;1.27;;;;;;;19.58;49.54;101162.22;5051382;28;20036;-66
2021/05/18 10:38:43;;;;;;;2.25;1.10;;;;;;;19.59;49.91;101163.03;5051713;28;20033;-64
2021/05/18 10:41:17;;;;;;;2.45;1.08;;;;;;;19.58;49.93;101159.56;5050518;28;20025;-65
2021/05/18 10:43:44;;;;;;;4.25;1.20;;;;;;;19.60;50.29;101164.72;5051578;28;20055;-65
2021/05/18 10:46:23;;;;;;;3.08;1.15;;;;;;;19.61;50.07;101170.84;5050866;28;20534;-65
2021/05/18 10:48:54;;;;;;;3.65;1.13;;;;;;;19.56;50.09;101172.06;5050953;28;20055;-66
2021/05/18 10:51:50;;;;;;;2.60;1.10;;;;;;;19.57;50.27;101167.63;5051109;28;20025;-64
2021/05/18 10:54:30;;;;;;;3.85;1.17;;;;;;;19.55;50.20;101166.91;5050362;28;20451;-65
2021/05/18 10:56:57;;;;;;;3.20;1.13;;;;;;;19.53;50.54;101172.31;5051267;28;20059;-66
2021/05/18 10:59:24;;;;;;;2.45;1.10;;;;;;;19.52;50.59;101167.16;5050870;28;20532;-65
2021/05/18 11:01:57;;;;;;;2.65;1.27;;;;;;;19.51;50.14;101168.13;5050631;28;20056;-65
2021/05/18 11:04:23;;;;;;;5.18;1.35;;;;;;;19.49;50.76;101162.13;5051081;28;20025;-67
2021/05/18 11:06:55;;;;;;;2.35;1.13;;;;;;;19.54;50.58;101160.78;5053920;28;20025;-66
2021/05/18 11:09:21;;;;;;;4.05;1.13;;;;;;;19.61;50.47;101162.91;5053805;28;20423;-65
2021/05/18 11:11:58;;;;;;;3.33;1.30;;;;;;;19.68;50.58;101167.56;5055141;28;20411;-64
2021/05/18 11:14:45;;;;;;;2.97;1.20;;;;;;;19.75;50.13;101152.03;5053871;28;20041;-65
2021/05/18 11:17:12;;;;;;;3.40;1.23;;;;;;;19.85;50.25;101152.13;5058048;28;20116;-66
2021/05/18 11:19:48;;;;;;;3.03;1.27;;;;;;;19.91;50.29;101148.97;5059530;28;20025;-65
2021/05/18 11:22:18;;;;;;;2.08;1.02;;;;;;;19.93;49.75;101153.19;5056690;28;20029;-65
2021/05/18 11:24:48;;;;;;;3.55;1.30;;;;;;;19.94;49.92;101151.38;5054809;28;20068;-63
2021/05/18 11:27:13;;;;;;;1.98;1.10;;;;;;;19.93;49.84;101157.63;5055455;28;20033;-66
2021/05/18 11:29:39;;;;;;;2.70;1.48;;;;;;;19.90;50.02;101155.22;5054591;28;20182;-67
2021/05/18 11:32:11;;;;;;;2.75;1.10;;;;;;;19.92;49.85;101163.88;5054883;28;20021;-66
2021/05/18 11:34:58;;;;;;;2.78;1.05;;;;;;;19.90;49.95;101166.66;5055569;28;20017;-66
2021/05/18 11:37:27;;;;;;;2.38;1.00;;;;;;;19.89;49.88;101162.34;5054220;28;20033;-66
2021/05/18 11:40:14;;;;;;;1.85;1.10;;;;;;;19.87;49.79;101164.28;5055470;28;20392;-66
2021/05/18 11:42:40;;;;;;;4.45;1.10;;;;;;;19.88;50.00;101170.38;5055784;28;20086;-64
2021/05/18 11:45:18;;;;;;;2.70;1.20;;;;;;;19.88;49.83;101165.09;5054536;28;20032;-63
2021/05/18 11:47:46;;;;;;;2.55;1.10;;;;;;;19.88;50.00;101162.47;5055515;28;20033;-66
2021/05/18 11:50:25;;;;;;;2.33;1.00;;;;;;;19.89;49.58;101164.97;5054334;28;20116;-65
2021/05/18 11:52:52;;;;;;;4.32;1.00;;;;;;;19.88;49.39;101165.94;5055209;28;20048;-63
2021/05/18 11:55:21;;;;;;;3.17;1.02;;;;;;;19.89;49.79;101159.69;5054854;28;20021;-65
2021/05/18 11:57:47;;;;;;;2.95;0.93;;;;;;;19.93;49.52;101160.25;5054342;28;20067;-64
2021/05/18 12:00:27;;;;;;;3.10;1.20;;;;;;;19.93;49.73;101161.13;5054962;28;20496;-65
2021/05/18 12:03:06;;;;;;;3.90;1.05;;;;;;;19.94;49.46;101156.66;5054428;28;20492;-64
2021/05/18 12:05:32;;;;;;;3.75;1.10;;;;;;;19.94;49.37;101161.94;5053982;28;20025;-64
2021/05/18 12:07:58;;;;;;;2.38;1.08;;;;;;;19.96;49.33;101159.19;5054648;28;20025;-64
2021/05/18 12:10:33;;;;;;;2.42;0.98;;;;;;;19.96;49.16;101156.53;5054491;28;20075;-64
2021/05/18 12:12:59;;;;;;;3.33;1.00;;;;;;;20.02;49.08;101164.78;5054090;28;20021;-63
2021/05/18 12:15:24;;;;;;;1.90;0.80;;;;;;;20.03;48.92;101163.00;5054248;28;20034;-62
2021/05/18 12:17:53;;;;;;;2.47;0.90;;;;;;;20.07;49.16;101169.69;5054344;28;20097;-64
2021/05/18 12:20:19;;;;;;;2.53;0.90;;;;;;;20.03;49.46;101163.81;5054015;28;20041;-65
2021/05/18 12:22:47;;;;;;;4.38;1.10;;;;;;;20.10;49.45;101174.72;5055364;28;20172;-65
2021/05/18 12:25:34;;;;;;;3.90;1.00;;;;;;;20.11;49.21;101171.13;5054790;28;20029;-64
2021/05/18 12:28:11;;;;;;;2.72;0.90;;;;;;;20.16;49.20;101166.25;5056049;28;20025;-67
2021/05/18 12:30:42;;;;;;;2.25;0.80;;;;;;;20.21;49.04;101166.72;5056660;28;20106;-63
2021/05/18 12:33:08;;;;;;;3.40;1.00;;;;;;;20.22;49.20;101165.75;5054620;28;20021;-66
2021/05/18 12:35:34;;;;;;;3.08;1.00;;;;;;;20.22;49.26;101171.03;5054874;28;20025;-65
2021/05/18 12:37:59;;;;;;;1.83;0.90;;;;;;;20.25;48.98;101177.84;5054540;28;20033;-66
2021/05/18 12:40:30;;;;;;;2.45;0.90;;;;;;;20.30;48.64;101171.22;5053288;28;20028;-65
2021/05/18 12:43:18;;;;;;;3.55;1.65;;;;;;;20.35;48.76;101173.47;5055286;28;20147;-64
2021/05/18 12:45:44;;;;;;;3.60;0.88;;;;;;;20.38;48.73;101180.31;5056014;28;20025;-66
2021/05/18 12:48:13;;;;;;;2.28;1.00;;;;;;;20.40;49.07;101167.78;5054395;28;20032;-66
2021/05/18 12:50:51;;;;;;;2.40;0.95;;;;;;;20.41;49.00;101174.75;5054658;28;20036;-67
2021/05/18 12:53:32;;;;;;;3.08;1.13;;;;;;;20.41;49.44;101177.38;5054348;28;20029;-65
2021/05/18 12:55:59;;;;;;;2.80;1.02;;;;;;;20.45;49.80;101169.06;5054211;28;20086;-66
2021/05/18 12:58:33;;;;;;;3.80;0.90;;;;;;;20.48;49.69;101179.38;5053804;28;20421;-66
2021/05/18 13:01:12;;;;;;;3.65;1.20;;;;;;;20.50;49.93;101178.44;5052743;28;20029;-65
2021/05/18 13:03:38;;;;;;;4.35;1.30;;;;;;;20.48;50.02;101183.84;5054276;28;20052;-66
2021/05/18 13:06:05;;;;;;;4.40;1.30;;;;;;;20.44;50.18;101187.72;5053133;28;20553;-65
2021/05/18 13:08:41;;;;;;;2.60;1.05;;;;;;;20.39;50.48;101190.75;5052956;28;20028;-65
2021/05/18 13:11:16;;;;;;;3.70;1.23;;;;;;;20.37;50.49;101191.88;5053538;28;20023;-65
2021/05/18 13:13:41;;;;;;;3.50;1.30;;;;;;;20.38;49.63;101197.03;5053546;28;20025;-64
2021/05/18 13:16:12;;;;;;;3.90;1.10;;;;;;;20.37;49.65;101195.34;5052214;28;20063;-64
2021/05/18 13:18:50;;;;;;;3.90;1.40;;;;;;;20.39;49.40;101195.22;5053228;28;20305;-63
2021/05/18 13:21:22;;;;;;;4.13;1.35;;;;;;;20.39;49.34;101179.34;5052925;28;20025;-63
2021/05/18 13:26:26;;;;;;;4.20;1.10;;;;;;;20.49;48.87;101193.47;5052982;28;20106;-63
2021/05/18 13:29:03;;;;;;;3.42;1.30;;;;;;;20.53;48.64;101194.03;5052516;28;20540;-63
2021/05/18 13:31:30;;;;;;;4.15;2.13;;;;;;;20.56;49.05;101197.25;5053262;28;20059;-65
2021/05/18 13:33:56;;;;;;;3.90;1.80;;;;;;;20.57;48.68;101193.66;5053044;28;20468;-65
2021/05/18 13:36:21;;;;;;;5.80;2.20;;;;;;;20.65;48.99;101196.50;5046730;28;20055;-65
2021/05/18 13:38:46;;;;;;;3.63;2.00;;;;;;;20.71;49.05;101197.78;5053996;28;20075;-64
2021/05/18 13:41:12;;;;;;;3.70;1.77;;;;;;;20.73;48.86;101187.03;5054334;28;20029;-64
2021/05/18 13:43:37;;;;;;;3.42;1.65;;;;;;;20.80;49.02;101190.84;5053248;28;20021;-64
2021/05/18 13:46:05;;;;;;;3.83;1.58;;;;;;;20.83;48.33;101186.09;5060051;28;20024;-65
2021/05/18 13:48:31;;;;;;;4.25;1.52;;;;;;;20.84;48.40;101195.75;5056456;28;20368;-66
2021/05/18 13:50:58;;;;;;;4.15;1.67;;;;;;;20.88;48.38;101195.47;5054333;28;20033;-64
2021/05/18 13:53:23;;;;;;;5.50;1.60;;;;;;;20.91;48.65;101192.56;5052252;28;20484;-63
2021/05/18 13:55:49;;;;;;;3.70;1.70;;;;;;;20.91;48.54;101196.03;5052288;28;20025;-66
2021/05/18 13:58:16;;;;;;;3.67;1.60;;;;;;;20.91;48.48;101190.75;5053352;28;20070;-64
2021/05/18 14:00:41;;;;;;;5.22;1.60;;;;;;;20.97;48.30;101192.03;5055587;28;20421;-65
2021/05/18 14:03:07;;;;;;;4.18;1.80;;;;;;;20.96;48.36;101207.06;5051829;28;20060;-66
2021/05/18 14:05:32;;;;;;;3.65;1.70;;;;;;;20.90;48.36;101207.59;5051791;28;20052;-65
2021/05/18 14:10:45;;;;;;;3.63;1.50;;;;;;;20.98;48.05;101196.34;5052347;28;20032;-66
2021/05/18 14:13:10;;;;;;;4.40;1.63;;;;;;;21.00;48.32;101197.06;5051517;28;20033;-66
2021/05/18 14:15:36;;;;;;;5.03;1.67;;;;;;;20.94;48.53;101202.88;5052215;28;20021;-65
2021/05/18 14:18:01;;;;;;;2.95;1.27;;;;;;;20.99;48.21;101208.63;5051403;28;20025;-66
2021/05/18 14:20:27;;;;;;;4.68;1.60;;;;;;;21.01;48.35;101190.75;5051899;28;20018;-66
2021/05/18 14:22:52;;;;;;;4.22;1.63;;;;;;;20.94;48.31;101203.72;5052029;28;20043;-65
2021/05/18 14:25:17;;;;;;;3.92;1.40;;;;;;;20.90;48.38;101210.25;5051257;28;20112;-65
2021/05/18 14:27:43;;;;;;;4.22;1.52;;;;;;;20.95;48.43;101215.16;5052151;28;20029;-67
2021/05/18 14:30:11;;;;;;;3.35;1.42;;;;;;;20.97;48.33;101206.09;5052152;28;20120;-68
2021/05/18 14:32:37;;;;;;;3.05;1.23;;;;;;;21.06;48.31;101217.72;5051297;28;20064;-66
2021/05/18 14:35:08;;;;;;;3.40;1.30;;;;;;;21.10;48.15;101205.03;5051611;28;20044;-67
2021/05/18 14:37:33;;;;;;;4.53;1.45;;;;;;;21.14;47.91;101212.56;5051790;28;20029;-67
2021/05/18 14:40:25;;;;;;;3.67;1.45;;;;;;;21.19;47.63;101213.00;5051468;28;20032;-62
2021/05/18 14:42:57;;;;;;;4.07;1.30;;;;;;;21.23;47.78;101213.56;5051853;28;20456;-65
2021/05/18 14:45:28;;;;;;;4.43;1.20;;;;;;;21.29;47.37;101202.41;5051658;28;20063;-67
2021/05/18 14:55:47;;;;;;;3.50;1.17;;;;;;;21.46;46.98;101206.22;5056169;28;20090;-64
2021/05/18 14:58:16;;;;;;;3.05;1.10;;;;;;;21.50;46.84;101210.28;5055059;28;20029;-64
2021/05/18 15:00:42;;;;;;;5.10;1.10;;;;;;;21.54;46.99;101216.16;5054730;28;20024;-64
2021/05/18 15:03:07;;;;;;;2.40;1.20;;;;;;;21.60;46.82;101220.06;5055416;28;20389;-66
2021/05/18 15:05:33;;;;;;;3.25;1.23;;;;;;;21.64;46.46;101211.69;5055699;28;20029;-66
2021/05/18 15:07:59;;;;;;;2.42;0.90;;;;;;;21.68;46.61;101215.75;5054672;28;20052;-65
2021/05/18 15:10:24;;;;;;;2.33;1.08;;;;;;;21.72;46.75;101222.44;5054986;28;20077;-66
2021/05/18 15:12:50;;;;;;;1.90;0.80;;;;;;;21.77;46.48;101222.03;5056008;28;20024;-65
2021/05/18 15:15:15;;;;;;;2.13;1.00;;;;;;;21.81;46.57;101217.28;5054462;28;20029;-63
2021/05/18 15:17:40;;;;;;;2.95;1.00;;;;;;;21.82;46.59;101217.13;5055665;28;20384;-62
2021/05/18 15:20:07;;;;;;;3.47;1.08;;;;;;;21.87;46.62;101222.88;5055418;28;20018;-64
2021/05/18 15:22:32;;;;;;;2.13;0.80;;;;;;;21.89;46.61;101220.91;5055253;28;20025;-63
2021/05/18 15:24:58;;;;;;;2.58;1.00;;;;;;;21.92;46.90;101227.72;5055217;28;20028;-63
2021/05/18 15:27:26;;;;;;;1.92;0.90;;;;;;;21.94;46.44;101231.09;5054964;28;20114;-64
2021/05/18 15:29:52;;;;;;;3.47;1.15;;;;;;;21.90;46.60;101235.00;5054311;28;20017;-65
2021/05/18 15:32:17;;;;;;;3.90;1.20;;;;;;;21.88;46.61;101245.75;5054661;28;20063;-65
2021/05/18 15:34:43;;;;;;;2.38;0.90;;;;;;;21.89;46.49;101236.84;5055441;28;20029;-66
2021/05/18 15:37:09;;;;;;;2.22;0.95;;;;;;;21.87;46.64;101251.19;5053863;28;20039;-64
2021/05/18 15:39:35;;;;;;;2.08;0.80;;;;;;;21.77;46.83;101245.91;5054940;28;20025;-63
2021/05/18 15:42:01;;;;;;;3.60;0.90;;;;;;;21.79;46.89;101256.38;5054889;28;20021;-64
2021/05/18 15:44:26;;;;;;;3.35;0.90;;;;;;;21.82;46.93;101259.56;5054216;28;20036;-63
2021/05/18 15:46:52;;;;;;;2.85;1.15;;;;;;;21.84;46.88;101248.81;5055102;28;20024;-64
2021/05/18 15:49:17;;;;;;;2.92;1.08;;;;;;;21.87;46.95;101256.50;5054161;28;20099;-63
2021/05/18 15:51:43;;;;;;;2.05;0.80;;;;;;;21.90;46.94;101256.22;5054985;28;20029;-62
2021/05/18 15:54:08;;;;;;;2.35;0.82;;;;;;;21.91;46.99;101256.09;5054720;28;20017;-65
2021/05/18 15:56:34;;;;;;;3.38;0.88;;;;;;;21.92;46.84;101249.81;5054104;28;20066;-62
2021/05/18 15:59:00;;;;;;;2.10;0.90;;;;;;;21.94;47.02;101265.59;5054635;28;20025;-63
2021/05/18 16:01:27;;;;;;;1.50;0.80;;;;;;;21.95;46.79;101259.28;5053935;28;20357;-66
2021/05/18 16:03:55;;;;;;;3.42;0.95;;;;;;;21.99;46.94;101268.66;5053572;28;20603;-67
2021/05/18 16:06:22;;;;;;;2.17;0.90;;;;;;;22.00;46.91;101265.03;5054423;28;20052;-66
2021/05/18 16:11:13;;;;;;;2.28;0.90;;;;;;;22.06;47.02;101277.75;5053637;28;20528;-66
2021/05/18 16:13:39;;;;;;;2.53;0.80;;;;;;;22.08;46.95;101275.78;5054453;28;20035;-66
2021/05/18 16:16:15;;;;;;;2.92;1.20;;;;;;;22.09;47.07;101279.28;5058673;28;20049;-66